createdAt,value
2023-03-21T00:00:43.019Z,13.25
2023-03-21T00:03:27.040Z,13.43
2023-03-21T00:05:54.911Z,14.15
2023-03-21T00:08:23.561Z,15.73
2023-03-21T00:11:02.072Z,14.43
2023-03-21T00:13:29.177Z,11.65
2023-03-21T00:16:04.560Z,12.25
2023-03-21T00:18:34.709Z,14.15
2023-03-21T00:21:37.568Z,14.27
2023-03-21T00:23:52.081Z,12.38
2023-03-21T00:26:18.762Z,13.73
2023-03-21T00:28:45.460Z,13.07
2023-03-21T00:31:12.108Z,12.05
2023-03-21T00:33:38.792Z,11.45
2023-03-21T00:36:06.953Z,12.40
2023-03-21T00:38:34.082Z,12.43
2023-03-21T00:41:04.796Z,11.90
2023-03-21T00:43:34.357Z,12.68
2023-03-21T00:46:01.233Z,12.68
2023-03-21T00:48:28.174Z,11.57
2023-03-21T00:50:55.708Z,11.43
2023-03-21T00:53:22.418Z,11.07
2023-03-21T00:55:49.442Z,10.15
2023-03-21T00:58:16.595Z,9.98
2023-03-21T01:00:43.524Z,8.75
2023-03-21T01:03:23.666Z,10.27
2023-03-21T01:05:51.347Z,10.23
2023-03-21T01:08:26.513Z,8.57
2023-03-21T01:10:54.896Z,8.40
2023-03-21T01:13:22.526Z,8.73
2023-03-21T01:15:51.128Z,7.70
2023-03-21T01:18:18.901Z,7.78
2023-03-21T01:20:46.169Z,7.85
2023-03-21T01:23:13.307Z,6.82
2023-03-21T01:25:40.336Z,7.72
2023-03-21T01:28:07.229Z,8.93
2023-03-21T01:30:37.077Z,9.63
2023-03-21T01:33:08.238Z,9.43
2023-03-21T01:35:47.972Z,10.32
2023-03-21T01:38:16.975Z,11.30
2023-03-21T01:40:45.546Z,11.65
2023-03-21T01:43:26.027Z,11.60
2023-03-21T01:46:10.725Z,10.00
2023-03-21T01:48:37.701Z,9.35
2023-03-21T01:51:04.487Z,10.80
2023-03-21T01:53:31.509Z,9.63
2023-03-21T01:55:59.252Z,8.95
2023-03-21T01:58:25.890Z,8.98
2023-03-21T02:03:35.971Z,7.35
2023-03-21T02:06:05.738Z,8.40
2023-03-21T02:08:39.278Z,9.10
2023-03-21T02:11:07.236Z,8.70
2023-03-21T02:13:33.878Z,8.48
2023-03-21T02:16:06.216Z,9.68
2023-03-21T02:18:38.217Z,8.90
2023-03-21T02:21:26.207Z,9.25
2023-03-21T02:24:39.998Z,9.32
2023-03-21T02:27:21.276Z,9.07
2023-03-21T02:29:59.919Z,10.77
2023-03-21T02:32:43.215Z,11.13
2023-03-21T02:35:47.108Z,11.45
2023-03-21T02:38:24.432Z,10.27
2023-03-21T02:41:10.105Z,11.65
2023-03-21T02:44:06.270Z,10.38
2023-03-21T02:46:59.725Z,11.10
2023-03-21T02:49:38.040Z,10.88
2023-03-21T02:52:14.468Z,10.57
2023-03-21T02:54:48.269Z,11.77
2023-03-21T02:57:17.318Z,11.63
2023-03-21T02:59:53.151Z,9.95
2023-03-21T03:02:22.971Z,11.18
2023-03-21T03:04:49.659Z,10.43
2023-03-21T03:07:30.184Z,10.70
2023-03-21T03:10:29.366Z,10.38
2023-03-21T03:13:21.566Z,10.57
2023-03-21T03:15:54.328Z,11.43
2023-03-21T03:18:34.872Z,10.00
2023-03-21T03:21:01.487Z,9.38
2023-03-21T03:23:32.165Z,10.75
2023-03-21T03:26:00.888Z,8.90
2023-03-21T03:28:30.645Z,9.48
2023-03-21T03:31:08.766Z,9.15
2023-03-21T03:33:37.167Z,9.23
2023-03-21T03:36:06.444Z,11.05
2023-03-21T03:41:02.532Z,9.65
2023-03-21T03:43:45.646Z,9.90
2023-03-21T03:46:16.433Z,9.60
2023-03-21T03:48:55.038Z,9.93
2023-03-21T03:51:43.823Z,9.95
2023-03-21T03:54:13.064Z,9.73
2023-03-21T03:56:39.870Z,10.00
2023-03-21T03:59:06.529Z,9.95
2023-03-21T04:01:34.519Z,10.23
2023-03-21T04:04:12.515Z,9.80
2023-03-21T04:06:39.450Z,10.25
2023-03-21T04:09:18.777Z,11.85
2023-03-21T04:11:47.287Z,10.65
2023-03-21T04:14:14.008Z,10.27
2023-03-21T04:16:40.739Z,11.00
2023-03-21T04:19:07.399Z,10.10
2023-03-21T04:21:34.058Z,10.38
2023-03-21T04:24:00.738Z,11.20
2023-03-21T04:26:27.398Z,10.15
2023-03-21T04:28:54.134Z,9.93
2023-03-21T04:31:26.005Z,10.63
2023-03-21T04:33:53.086Z,10.30
2023-03-21T04:36:19.779Z,9.57
2023-03-21T04:38:46.482Z,10.65
2023-03-21T04:41:13.092Z,11.05
2023-03-21T04:43:39.710Z,10.32
2023-03-21T04:46:06.548Z,10.15
2023-03-21T04:48:33.227Z,11.30
2023-03-21T04:50:59.838Z,9.25
2023-03-21T04:53:26.509Z,9.65
2023-03-21T04:55:55.451Z,9.98
2023-03-21T04:58:22.389Z,9.63
2023-03-21T05:00:49.231Z,9.40
2023-03-21T05:03:15.972Z,9.90
2023-03-21T05:05:42.663Z,9.40
2023-03-21T05:08:12.134Z,10.07
2023-03-21T05:10:41.377Z,8.98
2023-03-21T05:13:10.421Z,9.48
2023-03-21T05:15:37.251Z,9.50
2023-03-21T05:18:04.215Z,9.20
2023-03-21T05:20:30.817Z,8.43
2023-03-21T05:22:57.517Z,8.90
2023-03-21T05:25:24.177Z,9.30
2023-03-21T05:28:01.101Z,8.90
2023-03-21T05:30:28.143Z,10.02
2023-03-21T05:32:54.814Z,9.13
2023-03-21T05:35:21.454Z,7.43
2023-03-21T05:37:48.092Z,8.60
2023-03-21T05:40:14.821Z,8.75
2023-03-21T05:42:41.490Z,7.32
2023-03-21T05:45:11.269Z,8.30
2023-03-21T05:50:05.228Z,6.72
2023-03-21T05:52:34.686Z,7.32
2023-03-21T05:55:01.407Z,8.32
2023-03-21T05:57:28.231Z,6.45
2023-03-21T05:59:54.951Z,7.55
2023-03-21T06:02:21.804Z,4.38
2023-03-21T06:04:48.529Z,4.53
2023-03-21T06:07:15.149Z,4.13
2023-03-21T06:09:41.768Z,4.32
2023-03-21T06:12:08.481Z,4.65
2023-03-21T06:14:35.130Z,5.50
2023-03-21T06:17:03.320Z,4.32
2023-03-21T06:19:30.629Z,5.38
2023-03-21T06:21:57.368Z,6.78
2023-03-21T06:24:34.183Z,3.35
2023-03-21T06:27:04.024Z,5.07
2023-03-21T06:29:31.002Z,5.03
2023-03-21T06:31:58.362Z,5.88
2023-03-21T06:34:25.190Z,5.47
2023-03-21T06:36:51.840Z,5.72
2023-03-21T06:39:18.461Z,6.50
2023-03-21T06:41:45.134Z,6.43
2023-03-21T06:44:11.778Z,6.03
2023-03-21T06:46:38.464Z,6.95
2023-03-21T06:49:05.133Z,6.60
2023-03-21T06:51:32.184Z,6.40
2023-03-21T06:53:58.862Z,7.30
2023-03-21T06:56:25.478Z,7.22
2023-03-21T06:58:52.096Z,7.20
2023-03-21T07:01:18.935Z,8.43
2023-03-21T07:03:45.570Z,9.43
2023-03-21T07:06:12.231Z,7.13
2023-03-21T07:08:42.171Z,8.18
2023-03-21T07:11:09.184Z,8.10
2023-03-21T07:13:36.081Z,9.00
2023-03-21T07:16:02.769Z,8.50
2023-03-21T07:18:29.574Z,10.88
2023-03-21T07:20:56.266Z,8.68
2023-03-21T07:23:23.801Z,8.45
2023-03-21T07:25:50.805Z,10.93
2023-03-21T07:28:17.807Z,9.38
2023-03-21T07:30:44.915Z,9.40
2023-03-21T07:33:12.252Z,8.10
2023-03-21T07:35:39.123Z,9.00
2023-03-21T07:38:06.287Z,10.63
2023-03-21T07:40:33.158Z,10.38
2023-03-21T07:42:59.871Z,10.00
2023-03-21T07:45:29.496Z,12.52
2023-03-21T07:47:56.190Z,9.80
2023-03-21T07:50:22.894Z,10.52
2023-03-21T07:52:49.658Z,10.90
2023-03-21T07:55:16.340Z,11.45
2023-03-21T07:57:43.213Z,11.43
2023-03-21T08:00:10.463Z,10.63
2023-03-21T08:02:37.096Z,11.90
2023-03-21T08:05:03.934Z,11.30
2023-03-21T08:07:30.590Z,10.93
2023-03-21T08:09:57.382Z,10.68
2023-03-21T08:12:24.093Z,10.35
2023-03-21T08:14:51.051Z,10.35
2023-03-21T08:17:17.691Z,9.65
2023-03-21T08:19:44.428Z,10.25
2023-03-21T08:22:12.497Z,9.07
2023-03-21T08:24:39.331Z,9.88
2023-03-21T08:27:05.972Z,10.20
2023-03-21T08:29:32.601Z,8.48
2023-03-21T08:31:59.231Z,9.65
2023-03-21T08:34:25.897Z,8.48
2023-03-21T08:36:52.585Z,8.57
2023-03-21T08:39:19.300Z,9.93
2023-03-21T08:41:46.304Z,8.93
2023-03-21T08:44:13.984Z,8.75
2023-03-21T08:46:40.760Z,9.13
2023-03-21T08:49:07.456Z,9.25
2023-03-21T08:51:34.140Z,6.85
2023-03-21T08:54:00.821Z,9.60
2023-03-21T08:56:27.511Z,7.75
2023-03-21T08:58:54.188Z,7.75
2023-03-21T09:01:20.825Z,8.05
2023-03-21T09:03:47.556Z,6.07
2023-03-21T09:06:14.256Z,7.00
2023-03-21T09:08:41.114Z,6.10
2023-03-21T09:11:08.861Z,6.50
2023-03-21T09:13:35.464Z,6.95
2023-03-21T09:16:02.208Z,5.60
2023-03-21T09:18:28.992Z,5.28
2023-03-21T09:20:55.687Z,5.45
2023-03-21T09:23:22.332Z,5.78
2023-03-21T09:25:49.051Z,5.25
2023-03-21T09:28:15.829Z,4.93
2023-03-21T09:30:42.494Z,4.60
2023-03-21T09:33:09.925Z,4.75
2023-03-21T09:35:38.131Z,4.97
2023-03-21T09:38:05.029Z,4.05
2023-03-21T09:40:48.424Z,4.53
2023-03-21T09:43:34.046Z,4.50
2023-03-21T09:46:27.159Z,4.18
2023-03-21T09:48:59.801Z,4.78
2023-03-21T09:51:35.181Z,3.90
2023-03-21T09:54:05.505Z,4.25
2023-03-21T09:56:32.127Z,4.63
2023-03-21T09:58:59.467Z,4.07
2023-03-21T10:01:27.577Z,3.90
2023-03-21T10:03:57.024Z,4.28
2023-03-21T10:06:24.184Z,4.28
2023-03-21T10:08:50.870Z,4.35
2023-03-21T10:11:19.760Z,4.18
2023-03-21T10:14:26.489Z,3.92
2023-03-21T10:19:22.000Z,4.00
2023-03-21T10:22:04.854Z,3.88
2023-03-21T10:24:33.254Z,3.38
2023-03-21T10:26:59.915Z,4.10
2023-03-21T10:29:28.717Z,4.13
2023-03-21T10:31:56.987Z,4.32
2023-03-21T10:34:39.955Z,3.55
2023-03-21T10:37:06.663Z,3.95
2023-03-21T10:39:40.850Z,4.40
2023-03-21T10:42:10.767Z,3.90
2023-03-21T10:44:37.425Z,3.60
2023-03-21T10:47:08.585Z,3.28
2023-03-21T10:49:56.345Z,3.92
2023-03-21T10:55:07.972Z,3.63
2023-03-21T10:57:35.221Z,3.72
2023-03-21T11:00:02.224Z,4.25
2023-03-21T11:02:31.798Z,5.13
2023-03-21T11:05:05.168Z,3.58
2023-03-21T11:07:32.674Z,3.88
2023-03-21T11:10:00.704Z,3.72
2023-03-21T11:12:38.060Z,3.33
2023-03-21T11:15:30.650Z,3.30
2023-03-21T11:17:58.762Z,3.42
2023-03-21T11:20:25.459Z,3.55
2023-03-21T11:22:54.442Z,3.28
2023-03-21T11:25:25.039Z,4.07
2023-03-21T11:27:55.371Z,3.88
2023-03-21T11:30:23.804Z,3.30
2023-03-21T11:32:58.004Z,4.05
2023-03-21T11:35:38.551Z,4.28
2023-03-21T11:38:05.854Z,4.32
2023-03-21T11:40:33.496Z,4.05
2023-03-21T11:43:24.545Z,4.15
2023-03-21T11:46:07.675Z,5.20
2023-03-21T11:48:38.801Z,3.95
2023-03-21T11:51:40.415Z,4.32
2023-03-21T11:54:10.119Z,4.07
2023-03-21T11:56:40.288Z,4.65
2023-03-21T11:59:27.298Z,3.90
2023-03-21T12:02:35.614Z,3.80
2023-03-21T12:05:09.730Z,4.80
2023-03-21T12:07:42.102Z,5.60
2023-03-21T12:10:20.774Z,5.95
2023-03-21T12:12:56.879Z,5.20
2023-03-21T12:15:42.302Z,4.35
2023-03-21T12:18:30.389Z,4.47
2023-03-21T12:20:57.014Z,5.18
2023-03-21T12:23:43.526Z,5.43
2023-03-21T12:26:26.320Z,5.03
2023-03-21T12:29:17.550Z,4.90
2023-03-21T12:31:56.862Z,5.20
2023-03-21T12:34:49.096Z,5.40
2023-03-21T12:37:27.438Z,5.63
2023-03-21T12:39:59.656Z,5.57
2023-03-21T12:42:44.610Z,6.68
2023-03-21T12:45:20.897Z,6.82
2023-03-21T12:47:51.070Z,6.45
2023-03-21T12:50:29.894Z,6.03
2023-03-21T12:52:59.191Z,5.97
2023-03-21T12:55:33.687Z,4.82
2023-03-21T12:58:03.109Z,5.18
2023-03-21T13:00:36.556Z,5.57
2023-03-21T13:03:04.450Z,6.00
2023-03-21T13:05:57.652Z,6.00
2023-03-21T13:08:28.721Z,6.20
2023-03-21T13:10:55.380Z,5.90
2023-03-21T13:13:35.010Z,5.53
2023-03-21T13:16:15.075Z,6.75
2023-03-21T13:19:12.018Z,5.65
2023-03-21T13:21:51.946Z,5.18
2023-03-21T13:24:25.490Z,5.82
2023-03-21T13:27:01.717Z,5.88
2023-03-21T13:29:33.492Z,6.10
2023-03-21T13:32:34.909Z,5.15
2023-03-21T13:35:10.247Z,4.68
2023-03-21T13:37:39.697Z,5.72
2023-03-21T13:40:08.289Z,4.82
2023-03-21T13:42:35.076Z,4.70
2023-03-21T13:45:01.945Z,4.90
2023-03-21T13:47:56.435Z,5.50
2023-03-21T13:50:24.215Z,4.82
2023-03-21T13:53:11.096Z,4.80
2023-03-21T13:55:45.631Z,4.10
2023-03-21T13:58:44.116Z,4.90
2023-03-21T14:01:19.719Z,4.05
2023-03-21T14:03:46.484Z,3.40
2023-03-21T14:06:13.400Z,3.95
2023-03-21T14:08:40.989Z,3.90
2023-03-21T14:11:10.044Z,3.92
2023-03-21T14:13:48.383Z,3.83
2023-03-21T14:16:17.247Z,3.40
2023-03-21T14:18:54.618Z,3.20
2023-03-21T14:21:33.307Z,3.80
2023-03-21T14:24:04.746Z,4.50
2023-03-21T14:26:40.127Z,3.63
2023-03-21T14:29:22.853Z,4.25
2023-03-21T14:31:52.309Z,3.28
2023-03-21T14:34:19.133Z,4.20
2023-03-21T14:36:56.859Z,4.35
2023-03-21T14:39:28.030Z,4.43
2023-03-21T14:41:59.854Z,5.43
2023-03-21T14:44:47.394Z,5.60
2023-03-21T14:47:24.874Z,4.72
2023-03-21T14:49:51.711Z,6.07
2023-03-21T14:52:25.268Z,6.25
2023-03-21T14:54:52.095Z,6.10
2023-03-21T14:57:26.414Z,6.03
2023-03-21T14:59:53.913Z,6.88
2023-03-21T15:02:22.856Z,5.68
2023-03-21T15:04:58.006Z,4.78
2023-03-21T15:07:34.534Z,5.22
2023-03-21T15:10:06.871Z,4.82
2023-03-21T15:12:33.825Z,5.18
2023-03-21T15:15:00.884Z,5.90
2023-03-21T15:17:27.680Z,6.93
2023-03-21T15:19:54.351Z,6.30
2023-03-21T15:22:36.399Z,6.32
2023-03-21T15:27:32.663Z,4.72
2023-03-21T15:29:59.433Z,3.78
2023-03-21T15:32:28.512Z,3.78
2023-03-21T15:34:56.250Z,3.85
2023-03-21T15:37:25.743Z,3.97
2023-03-21T15:39:53.114Z,4.13
2023-03-21T15:42:37.504Z,3.45
2023-03-21T15:45:17.404Z,3.47
2023-03-21T15:47:59.242Z,4.40
2023-03-21T15:50:40.103Z,3.28
2023-03-21T15:53:17.877Z,3.70
2023-03-21T15:55:56.547Z,3.45
2023-03-21T15:58:27.028Z,3.35
2023-03-21T16:00:55.653Z,3.45
2023-03-21T16:03:23.655Z,3.40
2023-03-21T16:06:32.533Z,3.00
2023-03-21T16:09:13.270Z,3.63
2023-03-21T16:11:44.001Z,3.00
2023-03-21T16:14:11.939Z,3.63
2023-03-21T16:16:38.724Z,3.15
2023-03-21T16:19:05.565Z,4.00
2023-03-21T16:21:32.331Z,3.85
2023-03-21T16:23:59.129Z,4.55
2023-03-21T16:26:27.766Z,4.55
2023-03-21T16:28:54.510Z,3.67
2023-03-21T16:31:22.911Z,4.18
2023-03-21T16:33:49.695Z,4.32
2023-03-21T16:36:18.722Z,4.90
2023-03-21T16:38:46.054Z,3.92
2023-03-21T16:41:13.361Z,4.03
2023-03-21T16:43:40.392Z,4.78
2023-03-21T16:46:16.346Z,4.40
2023-03-21T16:48:44.294Z,3.85
2023-03-21T16:51:14.952Z,3.75
2023-03-21T16:53:42.106Z,3.80
2023-03-21T16:56:20.784Z,3.42
2023-03-21T16:58:47.975Z,3.70
2023-03-21T17:01:19.467Z,3.60
2023-03-21T17:03:47.193Z,3.15
2023-03-21T17:06:15.231Z,3.85
2023-03-21T17:08:41.875Z,3.70
2023-03-21T17:11:16.123Z,4.03
2023-03-21T17:13:43.789Z,3.67
2023-03-21T17:16:12.449Z,3.08
2023-03-21T17:18:39.258Z,3.85
2023-03-21T17:21:12.423Z,3.85
2023-03-21T17:23:39.196Z,3.72
2023-03-21T17:26:06.072Z,3.95
2023-03-21T17:28:33.983Z,4.13
2023-03-21T17:31:02.046Z,3.85
2023-03-21T17:33:30.021Z,4.35
2023-03-21T17:35:58.934Z,3.10
2023-03-21T17:38:25.879Z,4.25
2023-03-21T17:40:52.635Z,3.90
2023-03-21T17:43:26.180Z,4.07
2023-03-21T17:45:53.031Z,4.20
2023-03-21T17:48:19.843Z,4.95
2023-03-21T17:50:46.640Z,4.40
2023-03-21T17:53:13.380Z,5.50
2023-03-21T17:55:39.990Z,4.85
2023-03-21T17:58:06.692Z,4.72
2023-03-21T18:00:33.492Z,7.63
2023-03-21T18:03:00.149Z,4.68
2023-03-21T18:05:26.956Z,4.65
2023-03-21T18:08:09.834Z,5.13
2023-03-21T18:10:37.721Z,5.30
2023-03-21T18:13:04.826Z,4.53
2023-03-21T18:15:31.755Z,4.50
2023-03-21T18:18:00.762Z,4.55
2023-03-21T18:20:44.660Z,4.85
2023-03-21T18:23:14.577Z,4.70
2023-03-21T18:25:41.276Z,6.22
2023-03-21T18:28:11.805Z,6.43
2023-03-21T18:31:00.377Z,6.05
2023-03-21T18:33:25.958Z,6.15
2023-03-21T18:35:58.744Z,7.18
2023-03-21T18:38:29.393Z,6.10
2023-03-21T18:40:59.348Z,6.13
2023-03-21T18:46:12.947Z,6.60
2023-03-21T18:48:39.682Z,5.80
2023-03-21T18:51:14.974Z,5.43
2023-03-21T18:53:44.768Z,5.32
2023-03-21T18:56:11.699Z,4.82
2023-03-21T18:58:45.481Z,4.32
2023-03-21T19:01:12.302Z,3.63
2023-03-21T19:03:42.619Z,3.95
2023-03-21T19:06:09.765Z,3.53
2023-03-21T19:08:36.993Z,3.63
2023-03-21T19:11:07.359Z,4.65
2023-03-21T19:13:34.107Z,3.70
2023-03-21T19:16:02.514Z,3.33
2023-03-21T19:18:53.423Z,3.88
2023-03-21T19:21:18.577Z,3.50
2023-03-21T19:24:20.817Z,3.65
2023-03-21T19:26:34.936Z,3.55
2023-03-21T19:29:01.973Z,3.05
2023-03-21T19:31:29.112Z,3.85
2023-03-21T19:33:56.237Z,3.33
2023-03-21T19:36:23.582Z,4.07
2023-03-21T19:38:50.825Z,4.18
2023-03-21T19:41:18.204Z,4.85
2023-03-21T19:43:53.563Z,4.60
2023-03-21T19:46:24.267Z,5.00
2023-03-21T19:51:28.659Z,4.82
2023-03-21T19:54:00.147Z,5.15
2023-03-21T19:56:27.748Z,4.15
2023-03-21T19:58:57.617Z,5.07
2023-03-21T20:01:24.464Z,4.78
2023-03-21T20:03:51.205Z,4.25
2023-03-21T20:06:17.983Z,3.47
2023-03-21T20:11:31.735Z,3.83
2023-03-21T20:13:58.608Z,3.25
2023-03-21T20:16:32.685Z,3.00
2023-03-21T20:19:00.660Z,2.88
2023-03-21T20:21:32.479Z,2.70
2023-03-21T20:24:01.690Z,2.40
2023-03-21T20:26:28.361Z,2.40
2023-03-21T20:29:10.494Z,1.88
2023-03-21T20:31:41.821Z,1.42
2023-03-21T20:34:08.777Z,2.05
2023-03-21T20:36:40.875Z,2.22
2023-03-21T20:39:09.510Z,1.92
2023-03-21T20:41:38.723Z,2.63
2023-03-21T20:44:41.782Z,1.65
2023-03-21T20:46:53.861Z,1.67
2023-03-21T20:49:20.659Z,2.33
2023-03-21T20:54:36.716Z,1.52
2023-03-21T20:57:04.071Z,1.30
2023-03-21T20:59:30.886Z,1.55
2023-03-21T21:01:58.346Z,1.38
2023-03-21T21:04:44.151Z,1.35
2023-03-21T21:07:13.212Z,1.30
2023-03-21T21:09:39.995Z,1.27
2023-03-21T21:12:09.321Z,1.58
2023-03-21T21:14:36.394Z,2.15
2023-03-21T21:17:22.494Z,1.40
2023-03-21T21:19:50.400Z,1.73
2023-03-21T21:22:17.386Z,1.02
2023-03-21T21:24:44.208Z,1.08
2023-03-21T21:27:11.097Z,1.38
2023-03-21T21:29:37.756Z,1.80
2023-03-21T21:32:04.461Z,2.08
2023-03-21T21:34:31.360Z,1.88
2023-03-21T21:36:59.157Z,1.75
2023-03-21T21:39:27.106Z,1.85
2023-03-21T21:41:54.158Z,2.05
2023-03-21T21:44:20.999Z,2.58
2023-03-21T21:46:47.769Z,1.67
2023-03-21T21:49:15.579Z,1.85
2023-03-21T21:51:42.276Z,1.50
2023-03-21T21:54:09.071Z,1.80
2023-03-21T21:56:37.886Z,3.05
2023-03-21T21:59:05.217Z,2.17
2023-03-21T22:01:32.175Z,1.45
2023-03-21T22:03:58.856Z,1.52
2023-03-21T22:06:25.652Z,1.77
2023-03-21T22:08:52.346Z,1.90
2023-03-21T22:11:19.022Z,1.95
2023-03-21T22:13:45.802Z,1.85
2023-03-21T22:16:12.478Z,2.08
2023-03-21T22:18:39.194Z,2.70
2023-03-21T22:21:06.502Z,3.38
2023-03-21T22:23:33.167Z,2.83
2023-03-21T22:25:59.924Z,2.72
2023-03-21T22:28:26.567Z,2.92
2023-03-21T22:30:54.204Z,3.30
2023-03-21T22:33:23.657Z,3.10
2023-03-21T22:35:52.705Z,3.13
2023-03-21T22:38:19.547Z,3.17
2023-03-21T22:40:46.175Z,3.42
2023-03-21T22:43:14.363Z,3.95
2023-03-21T22:45:41.068Z,3.35
2023-03-21T22:48:07.925Z,3.60
2023-03-21T22:50:34.726Z,3.88
2023-03-21T22:53:01.431Z,4.22
2023-03-21T22:55:28.073Z,4.60
2023-03-21T22:57:54.833Z,3.65
2023-03-21T23:00:21.536Z,3.38
2023-03-21T23:02:48.180Z,3.65
2023-03-21T23:05:14.896Z,2.85
2023-03-21T23:07:41.558Z,2.22
2023-03-21T23:10:10.569Z,2.42
2023-03-21T23:12:37.401Z,2.60
2023-03-21T23:15:05.462Z,2.30
2023-03-21T23:17:32.186Z,3.17
2023-03-21T23:19:58.858Z,2.60
2023-03-21T23:22:25.504Z,2.70
2023-03-21T23:24:52.199Z,2.38
2023-03-21T23:27:18.823Z,2.55
2023-03-21T23:29:45.554Z,3.13
2023-03-21T23:32:12.324Z,2.08
2023-03-21T23:34:47.624Z,2.50
2023-03-21T23:37:14.289Z,2.58
2023-03-21T23:39:40.968Z,1.67
2023-03-21T23:42:07.775Z,2.40
2023-03-21T23:44:34.472Z,2.05
2023-03-21T23:47:01.091Z,2.25
2023-03-21T23:49:27.868Z,2.22
2023-03-21T23:51:54.574Z,2.10
2023-03-21T23:54:21.210Z,2.03
2023-03-21T23:56:47.894Z,1.63
2023-03-21T23:59:14.594Z,1.85
